Theoni — D5NL9 — position and weather

sailwx.info

Track history (hours):
 
Tides and Currents Weather Stations Pressure Air Temp Water Temp Dewpoint Dewpoint Depression Visibility Wind Speed Wind Dir Waves Ship Positions

Theoni

Last reported at 2018-Feb-21 02:36 UTC. Time now 2018-Feb-22 20:14 UTC.
Position N 40°20' W 009°54'.

Length 182 m; draft 7.5 m.

Type: Tanker. MMSI: 636017945.

Date/timePositionNaut miles runAvg speedWind from/ knotsBaromVisibWave heightAir tempDewpointWater temp
2018-Feb-21 02:36N 40°20' W 009°54'112.3
2018-Feb-21 02:30N 40°19' W 009°54'712.1
2018-Feb-21 01:57N 40°12' W 009°55'512.1
2018-Feb-21 01:30N 40°07' W 009°55'612.1
2018-Feb-21 01:00N 40°01' W 009°54'812.2
2018-Feb-21 00:21N 39°53' W 009°55'412.2
2018-Feb-21 00:00N 39°49' W 009°54'612.1
2018-Feb-20 23:30N 39°43' W 009°54'612.5
2018-Feb-20 23:00N 39°36' W 009°54'612.6
2018-Feb-20 22:30N 39°30' W 009°54'612.2
2018-Feb-20 22:00N 39°24' W 009°54'612.3
2018-Feb-20 21:29N 39°18' W 009°53'612.2
2018-Feb-20 21:00N 39°12' W 009°53'612.0
2018-Feb-20 20:30N 39°06' W 009°53'612.2
2018-Feb-20 20:00N 38°60' W 009°52'612.1
2018-Feb-20 19:30N 38°54' W 009°52'611.9
2018-Feb-20 19:00N 38°48' W 009°52'612.0
2018-Feb-20 18:30N 38°42' W 009°51'612.0
2018-Feb-20 18:00N 38°36' W 009°49'611.9
2018-Feb-20 17:30N 38°30' W 009°47'611.7
2018-Feb-20 17:00N 38°24' W 009°45'611.8
2018-Feb-20 16:30N 38°19' W 009°43'611.6
2018-Feb-20 16:00N 38°13' W 009°42'612.1
2018-Feb-20 15:30N 38°07' W 009°41'612.1
2018-Feb-20 15:00N 38°01' W 009°39'612.0
2018-Feb-20 14:30N 37°55' W 009°37'612.0
2018-Feb-20 14:00N 37°50' W 009°36'612.2
2018-Feb-20 13:30N 37°43' W 009°35'612.3
2018-Feb-20 13:00N 37°37' W 009°33'612.3
2018-Feb-20 12:30N 37°32' W 009°31'612.4
2018-Feb-20 12:00N 37°26' W 009°29'612.2
2018-Feb-20 11:30N 37°20' W 009°27'612.5
2018-Feb-20 11:00N 37°13' W 009°26'612.1
2018-Feb-20 10:30N 37°08' W 009°24'612.2
2018-Feb-20 10:00N 37°02' W 009°22'612.0
2018-Feb-20 09:30N 36°56' W 009°21'911.6
2018-Feb-20 08:42N 36°48' W 009°14'312.2
2018-Feb-20 08:28N 36°46' W 009°12'912.0
2018-Feb-20 07:45N 36°42' W 009°02'312.1
2018-Feb-20 07:29N 36°41' W 008°58'612.4
2018-Feb-20 06:59N 36°40' W 008°51'712.5
2018-Feb-20 06:28N 36°38' W 008°43'913.1
2018-Feb-20 05:45N 36°34' W 008°32'14712.6
2018-Feb-19 18:07N 35°58' W 005°35'211.3
2018-Feb-19 17:59N 35°58' W 005°33'510.8
2018-Feb-19 17:30N 35°60' W 005°27'5 9.8
2018-Feb-19 17:00N 36°01' W 005°22'5 9.4
2018-Feb-19 16:30N 36°06' W 005°24'0 0.7
2018-Feb-19 16:00N 36°06' W 005°24'0 0.0
2018-Feb-19 15:30N 36°06' W 005°24'0 0.1
2018-Feb-19 15:00N 36°06' W 005°24'0 0.0
2018-Feb-19 14:30N 36°06' W 005°24'0 0.1
2018-Feb-19 14:00N 36°06' W 005°24'0 0.1
2018-Feb-19 13:30N 36°06' W 005°24'0 0.1
2018-Feb-19 13:00N 36°06' W 005°24'0 0.0
2018-Feb-19 12:30N 36°06' W 005°24'0 0.1
2018-Feb-19 12:00N 36°06' W 005°24'0 0.1
2018-Feb-19 11:27N 36°06' W 005°24'0 0.1
2018-Feb-19 11:00N 36°06' W 005°24'0 0.1
2018-Feb-19 10:30N 36°06' W 005°24'0 0.0
2018-Feb-19 09:18N 36°06' W 005°24'0 0.1
2018-Feb-19 09:00N 36°06' W 005°24'  
2018-Feb-17 01:40N 30°58' W 011°38'211.4
2018-Feb-17 01:30N 30°57' W 011°39'2211.5
2018-Feb-16 23:37N 30°37' W 011°50'212.0
2018-Feb-16 23:25N 30°35' W 011°51'11011.9
2018-Feb-16 14:11N 29°00' W 012°55'212.0
2018-Feb-16 14:00N 28°58' W 012°57'712.4
2018-Feb-16 13:28N 28°53' W 013°01'712.7
2018-Feb-16 12:55N 28°46' W 013°04'513.1
2018-Feb-16 12:30N 28°42' W 013°07'713.3
2018-Feb-16 12:00N 28°36' W 013°11'713.1
2018-Feb-16 11:30N 28°30' W 013°14'1113.2
2018-Feb-16 10:41N 28°20' W 013°20'213.0
2018-Feb-16 10:30N 28°19' W 013°22'  
Track history (hours):
 
Tides and Currents Weather Stations Pressure Air Temp Water Temp Dewpoint Dewpoint Depression Visibility Wind Speed Wind Dir Waves Ship Positions

Theoni

Last reported at 2018-Feb-21 02:36 UTC. Time now 2018-Feb-22 20:14 UTC.
Position N 40°20' W 009°54'.

Length 182 m; draft 7.5 m.

Type: Tanker. MMSI: 636017945.

Date/timePositionNaut miles runAvg speedWind from/ knotsBaromVisibWave heightAir tempDewpointWater temp
2018-Feb-21 02:36N 40°20' W 009°54'112.3
2018-Feb-21 02:30N 40°19' W 009°54'712.1
2018-Feb-21 01:57N 40°12' W 009°55'512.1
2018-Feb-21 01:30N 40°07' W 009°55'612.1
2018-Feb-21 01:00N 40°01' W 009°54'812.2
2018-Feb-21 00:21N 39°53' W 009°55'412.2
2018-Feb-21 00:00N 39°49' W 009°54'612.1
2018-Feb-20 23:30N 39°43' W 009°54'612.5
2018-Feb-20 23:00N 39°36' W 009°54'612.6
2018-Feb-20 22:30N 39°30' W 009°54'612.2
2018-Feb-20 22:00N 39°24' W 009°54'612.3
2018-Feb-20 21:29N 39°18' W 009°53'612.2
2018-Feb-20 21:00N 39°12' W 009°53'612.0
2018-Feb-20 20:30N 39°06' W 009°53'612.2
2018-Feb-20 20:00N 38°60' W 009°52'612.1
2018-Feb-20 19:30N 38°54' W 009°52'611.9
2018-Feb-20 19:00N 38°48' W 009°52'612.0
2018-Feb-20 18:30N 38°42' W 009°51'612.0
2018-Feb-20 18:00N 38°36' W 009°49'611.9
2018-Feb-20 17:30N 38°30' W 009°47'611.7
2018-Feb-20 17:00N 38°24' W 009°45'611.8
2018-Feb-20 16:30N 38°19' W 009°43'611.6
2018-Feb-20 16:00N 38°13' W 009°42'612.1
2018-Feb-20 15:30N 38°07' W 009°41'612.1
2018-Feb-20 15:00N 38°01' W 009°39'612.0
2018-Feb-20 14:30N 37°55' W 009°37'612.0
2018-Feb-20 14:00N 37°50' W 009°36'612.2
2018-Feb-20 13:30N 37°43' W 009°35'612.3
2018-Feb-20 13:00N 37°37' W 009°33'612.3
2018-Feb-20 12:30N 37°32' W 009°31'612.4
2018-Feb-20 12:00N 37°26' W 009°29'612.2
2018-Feb-20 11:30N 37°20' W 009°27'612.5
2018-Feb-20 11:00N 37°13' W 009°26'612.1
2018-Feb-20 10:30N 37°08' W 009°24'612.2
2018-Feb-20 10:00N 37°02' W 009°22'612.0
2018-Feb-20 09:30N 36°56' W 009°21'911.6
2018-Feb-20 08:42N 36°48' W 009°14'312.2
2018-Feb-20 08:28N 36°46' W 009°12'912.0
2018-Feb-20 07:45N 36°42' W 009°02'312.1
2018-Feb-20 07:29N 36°41' W 008°58'612.4
2018-Feb-20 06:59N 36°40' W 008°51'712.5
2018-Feb-20 06:28N 36°38' W 008°43'913.1
2018-Feb-20 05:45N 36°34' W 008°32'14712.6
2018-Feb-19 18:07N 35°58' W 005°35'211.3
2018-Feb-19 17:59N 35°58' W 005°33'510.8
2018-Feb-19 17:30N 35°60' W 005°27'5 9.8
2018-Feb-19 17:00N 36°01' W 005°22'5 9.4
2018-Feb-19 16:30N 36°06' W 005°24'0 0.7
2018-Feb-19 16:00N 36°06' W 005°24'0 0.0
2018-Feb-19 15:30N 36°06' W 005°24'0 0.1
2018-Feb-19 15:00N 36°06' W 005°24'0 0.0
2018-Feb-19 14:30N 36°06' W 005°24'0 0.1
2018-Feb-19 14:00N 36°06' W 005°24'0 0.1
2018-Feb-19 13:30N 36°06' W 005°24'0 0.1
2018-Feb-19 13:00N 36°06' W 005°24'0 0.0
2018-Feb-19 12:30N 36°06' W 005°24'0 0.1
2018-Feb-19 12:00N 36°06' W 005°24'0 0.1
2018-Feb-19 11:27N 36°06' W 005°24'0 0.1
2018-Feb-19 11:00N 36°06' W 005°24'0 0.1
2018-Feb-19 10:30N 36°06' W 005°24'0 0.0
2018-Feb-19 09:18N 36°06' W 005°24'0 0.1
2018-Feb-19 09:00N 36°06' W 005°24'  
2018-Feb-17 01:40N 30°58' W 011°38'211.4
2018-Feb-17 01:30N 30°57' W 011°39'2211.5
2018-Feb-16 23:37N 30°37' W 011°50'212.0
2018-Feb-16 23:25N 30°35' W 011°51'11011.9
2018-Feb-16 14:11N 29°00' W 012°55'212.0
2018-Feb-16 14:00N 28°58' W 012°57'712.4
2018-Feb-16 13:28N 28°53' W 013°01'712.7
2018-Feb-16 12:55N 28°46' W 013°04'513.1
2018-Feb-16 12:30N 28°42' W 013°07'713.3
2018-Feb-16 12:00N 28°36' W 013°11'713.1
2018-Feb-16 11:30N 28°30' W 013°14'1113.2
2018-Feb-16 10:41N 28°20' W 013°20'213.0
2018-Feb-16 10:30N 28°19' W 013°22'  

Dump ship's entire track history